Time;durP1;ratioP1;P1;durP2;ratioP2;P2;SDS_P1;SDS_P2;PMS_P1;PMS_P2;Temp;Humidity;BMP_temperature;BMP_pressure;BME280_temperature;BME280_humidity;BME280_pressure;Samples;Min_cycle;Max_cycle;Signal;HPM_P1;HPM_P2
2022/08/14 00:00:40;;;;;;;;;13.50;12.25;;;;;25.88;49.40;100197.25;146616;578;46010;-73
2022/08/14 00:03:42;;;;;;;;;15.75;15.75;;;;;25.92;49.30;100191.88;146608;598;45914;-70
2022/08/14 00:06:41;;;;;;;;;15.00;13.75;;;;;25.96;49.34;100188.25;146608;617;45020;-71
2022/08/14 00:09:35;;;;;;;;;15.00;14.25;;;;;25.94;49.12;100184.72;146601;572;46012;-71
2022/08/14 00:12:38;;;;;;;;;13.25;11.50;;;;;25.85;49.09;100181.38;146605;587;45020;-70
2022/08/14 00:15:48;;;;;;;;;13.25;13.25;;;;;25.80;48.73;100184.13;146601;686;46012;-70
2022/08/14 00:18:46;;;;;;;;;13.50;12.25;;;;;25.82;49.09;100174.34;146605;602;45020;-70
2022/08/14 00:21:39;;;;;;;;;12.25;12.25;;;;;25.80;49.53;100168.19;146602;690;46012;-71
2022/08/14 00:24:42;;;;;;;;;12.00;12.00;;;;;25.76;49.87;100167.38;146604;707;46010;-70
2022/08/14 00:27:34;;;;;;;;;14.50;13.75;;;;;25.70;49.68;100164.84;146601;689;45914;-69
2022/08/14 00:30:36;;;;;;;;;12.75;12.75;;;;;25.66;49.95;100155.16;146605;578;45021;-69
2022/08/14 00:33:30;;;;;;;;;15.00;15.00;;;;;25.76;49.84;100162.06;146601;601;46012;-70
2022/08/14 00:36:32;;;;;;;;;15.50;15.00;;;;;25.87;49.24;100155.69;146603;646;45028;-70
2022/08/14 00:39:34;;;;;;;;;14.75;12.25;;;;;26.01;48.74;100156.25;146600;583;45915;-70
2022/08/14 00:42:37;;;;;;;;;16.25;14.50;;;;;26.10;48.51;100160.50;146606;606;45020;-70
2022/08/14 00:45:33;;;;;;;;;12.75;11.75;;;;;26.11;48.99;100156.97;146600;581;46013;-70
2022/08/14 00:48:36;;;;;;;;;12.75;12.75;;;;;26.05;48.76;100157.09;146606;565;45020;-70
2022/08/14 00:51:47;;;;;;;;;12.00;11.25;;;;;25.94;49.10;100152.84;146601;671;46015;-70
2022/08/14 00:54:53;;;;;;;;;15.00;12.25;;;;;25.79;48.81;100148.72;146604;655;46003;-70
2022/08/14 00:58:29;;;;;;;;;14.25;13.00;;;;;25.63;49.77;100147.25;146601;578;46012;-70
2022/08/14 01:01:17;;;;;;;;;10.75;10.75;;;;;25.51;50.16;100142.19;146603;585;45023;-70
2022/08/14 01:04:12;;;;;;;;;13.00;13.00;;;;;25.50;50.30;100141.31;146599;738;46012;-70
2022/08/14 01:07:08;;;;;;;;;12.75;12.50;;;;;25.62;50.24;100145.53;146608;579;46010;-70
2022/08/14 01:10:18;;;;;;;;;12.75;12.75;;;;;25.76;49.77;100140.81;146608;640;46012;-68
2022/08/14 01:13:20;;;;;;;;;16.50;13.75;;;;;25.83;49.64;100138.94;146612;565;45020;-70
2022/08/14 01:16:23;;;;;;;;;13.75;12.00;;;;;25.78;49.21;100141.63;146612;569;46014;-69
2022/08/14 01:22:29;;;;;;;;;14.00;14.00;;;;;25.55;50.38;100130.62;146609;653;45912;-69
2022/08/14 01:25:37;;;;;;;;;14.50;13.50;;;;;24.51;49.94;99976.03;146616;622;45020;-69
2022/08/14 01:28:36;;;;;;;;;12.00;12.00;;;;;25.33;50.73;100136.34;146612;628;45914;-67
2022/08/14 01:31:55;;;;;;;;;13.50;13.50;;;;;25.21;51.00;100128.59;146618;600;45023;-68
2022/08/14 01:35:06;;;;;;;;;14.00;13.75;;;;;25.09;50.80;100131.44;146607;600;46012;-67
2022/08/14 01:38:13;;;;;;;;;13.75;13.50;;;;;24.99;51.62;100125.44;146614;579;45021;-68
2022/08/14 01:41:14;;;;;;;;;13.00;13.00;;;;;24.94;51.37;100127.28;146607;614;46012;-67
2022/08/14 01:44:18;;;;;;;;;15.50;14.50;;;;;24.92;51.19;100123.75;146616;570;46015;-68
2022/08/14 01:47:21;;;;;;;;;17.00;15.75;;;;;24.92;51.79;100117.59;146611;594;45915;-67
2022/08/14 01:50:17;;;;;;;;;18.25;14.75;;;;;24.91;51.53;100116.72;146612;572;47014;-68
2022/08/14 01:53:17;;;;;;;;;14.00;14.00;;;;;24.92;51.36;100117.59;146607;627;45914;-69
2022/08/14 01:56:15;;;;;;;;;13.25;13.00;;;;;24.92;51.21;100115.81;146614;668;46010;-67
2022/08/14 01:59:43;;;;;;;;;14.75;13.75;;;;;23.91;50.70;99946.09;146611;633;46012;-69
2022/08/14 02:02:54;;;;;;;;;;;;;;;;;;;;;
2022/08/14 02:05:55;;;;;;;;;14.00;13.00;;;;;24.71;51.83;100122.37;146608;582;45913;-67
2022/08/14 02:08:57;;;;;;;;;13.75;11.75;;;;;24.66;51.53;100119.78;146604;569;46014;-69
2022/08/14 02:12:12;;;;;;;;;13.25;13.00;;;;;23.59;52.40;99941.25;146602;644;45914;-68
2022/08/14 02:15:08;;;;;;;;;17.25;14.75;;;;;24.54;52.93;100116.44;146605;684;46014;-68
2022/08/14 02:18:19;;;;;;;;;14.25;14.25;;;;;24.49;52.20;100120.97;146601;653;45914;-67
2022/08/14 02:21:17;;;;;;;;;13.75;12.50;;;;;24.47;52.53;100109.50;146606;602;45021;-67
2022/08/14 02:24:28;;;;;;;;;15.50;14.50;;;;;24.51;52.62;100113.84;146600;583;46012;-68
2022/08/14 02:27:24;;;;;;;;;17.50;15.50;;;;;24.55;52.17;100102.28;146604;570;45021;-69
2022/08/14 02:30:45;;;;;;;;;13.00;13.00;;;;;23.66;51.71;99947.31;146602;566;45915;-68
2022/08/14 02:33:43;;;;;;;;;14.00;14.00;;;;;24.63;52.09;100101.25;146606;566;45020;-69
2022/08/14 02:36:36;;;;;;;;;16.00;13.25;;;;;24.68;52.30;100103.00;146599;612;46013;-68
2022/08/14 02:39:41;;;;;;;;;13.25;13.25;;;;;24.74;52.57;100097.59;146604;616;45020;-70
2022/08/14 02:42:45;;;;;;;;;14.50;14.50;;;;;24.76;52.19;100093.12;146601;636;45914;-69
2022/08/14 02:45:47;;;;;;;;;12.25;11.75;;;;;24.79;52.46;100096.56;146603;627;46914;-69
2022/08/14 02:48:49;;;;;;;;;15.00;13.75;;;;;24.81;51.66;100089.47;146599;665;47012;-68
2022/08/14 02:52:02;;;;;;;;;;;;;;;;;;;;;
2022/08/14 02:54:58;;;;;;;;;15.00;13.75;;;;;24.77;51.74;100085.16;146602;622;45912;-68
2022/08/14 02:57:54;;;;;;;;;14.50;14.50;;;;;24.76;52.00;100090.47;146605;617;45021;-69
2022/08/14 03:00:54;;;;;;;;;14.50;13.75;;;;;24.75;52.11;100088.72;146603;563;46014;-71
2022/08/14 03:03:55;;;;;;;;;14.00;14.00;;;;;24.66;51.75;100082.66;146609;629;45020;-71
2022/08/14 03:06:54;;;;;;;;;15.75;15.25;;;;;24.65;51.68;100086.22;146600;621;46010;-70
2022/08/14 03:10:02;;;;;;;;;15.00;13.00;;;;;23.66;51.61;99918.22;146605;698;45020;-70
2022/08/14 03:12:56;;;;;;;;;15.00;14.00;;;;;24.66;52.58;100085.31;146602;593;45914;-71
2022/08/14 03:15:57;;;;;;;;;13.25;12.25;;;;;24.62;52.52;100091.56;146605;573;45021;-71
2022/08/14 03:18:56;;;;;;;;;12.75;12.25;;;;;24.58;52.42;100089.88;146601;629;45914;-71
2022/08/14 03:21:53;;;;;;;;;13.75;13.50;;;;;24.57;52.43;100088.09;146607;554;46010;-71
2022/08/14 03:24:57;;;;;;;;;14.75;12.00;;;;;24.56;52.35;100088.16;146602;590;45913;-70
2022/08/14 03:28:14;;;;;;;;;14.50;14.50;;;;;23.52;51.69;99899.91;146608;602;45021;-70
2022/08/14 03:31:35;;;;;;;;;14.25;14.25;;;;;24.52;52.52;100078.50;146602;563;45914;-72
2022/08/14 03:34:30;;;;;;;;;15.00;13.00;;;;;24.48;52.83;100080.31;146607;594;45021;-71
2022/08/14 03:37:34;;;;;;;;;15.00;14.75;;;;;24.49;52.71;100081.22;146601;611;46012;-69
2022/08/14 03:40:58;;;;;;;;;16.50;14.00;;;;;23.67;51.61;99917.31;146605;615;45030;-69
2022/08/14 03:44:00;;;;;;;;;15.25;13.50;;;;;24.77;52.15;100085.16;146601;764;45915;-69
2022/08/14 03:47:11;;;;;;;;;13.00;12.00;;;;;24.87;51.68;100084.06;146605;605;46020;-69
2022/08/14 03:50:06;;;;;;;;;16.00;13.00;;;;;24.91;51.46;100084.03;146602;573;45914;-70
2022/08/14 03:53:08;;;;;;;;;11.75;10.75;;;;;24.91;52.11;100094.63;146604;647;45050;-69
2022/08/14 03:56:03;;;;;;;;;14.25;13.50;;;;;24.84;52.40;100093.88;146602;604;45914;-68
2022/08/14 03:59:29;;;;;;;;;16.25;13.50;;;;;24.79;51.44;100095.72;146605;565;46014;-68
2022/08/14 04:02:28;;;;;;;;;13.75;12.00;;;;;24.74;52.74;100095.81;146600;620;46012;-69
2022/08/14 04:05:29;;;;;;;;;15.75;15.25;;;;;24.68;52.44;100097.69;146606;583;46010;-67
2022/08/14 04:08:49;;;;;;;;;16.75;16.00;;;;;23.60;52.16;99921.81;146613;565;45915;-68
2022/08/14 04:11:53;;;;;;;;;14.00;13.75;;;;;23.59;52.31;99932.44;146613;579;45020;-71
2022/08/14 04:14:51;;;;;;;;;14.50;12.75;;;;;24.57;52.90;100092.53;146610;584;45915;-70
2022/08/14 04:18:17;;;;;;;;;14.00;12.00;;;;;24.61;52.68;100080.97;146614;598;46014;-71
2022/08/14 04:21:11;;;;;;;;;12.75;12.50;;;;;24.66;52.71;100073.84;146608;596;45915;-69
2022/08/14 04:24:12;;;;;;;;;14.75;13.50;;;;;24.72;52.82;100079.03;146617;638;46010;-71
2022/08/14 04:27:08;;;;;;;;;13.50;11.50;;;;;24.77;52.69;100076.31;146614;704;45017;-71
2022/08/14 04:30:05;;;;;;;;;15.50;14.00;;;;;24.81;52.66;100072.72;146614;563;46010;-74
2022/08/14 04:32:59;;;;;;;;;15.00;14.00;;;;;24.80;53.44;100077.13;146612;569;46012;-73
2022/08/14 04:35:53;;;;;;;;;13.00;13.00;;;;;24.78;53.10;100067.47;146613;565;45021;-71
2022/08/14 04:45:22;;;;;;;;;15.75;15.75;;;;;24.15;53.63;99890.97;146610;590;46012;-71
2022/08/14 04:48:19;;;;;;;;;12.25;12.25;;;;;25.24;54.61;100043.63;146613;617;46010;-72
2022/08/14 04:51:17;;;;;;;;;19.00;16.25;;;;;25.38;55.53;100039.81;146612;609;45017;-71
2022/08/14 04:54:11;;;;;;;;;16.25;16.00;;;;;25.48;55.70;100039.63;146616;584;45033;-70
2022/08/14 04:57:05;;;;;;;;;15.50;14.75;;;;;25.59;55.51;100044.69;146612;595;45915;-69
2022/08/14 04:59:57;;;;;;;;;16.50;13.75;;;;;25.76;54.34;100057.59;146614;592;46010;-69
2022/08/14 05:03:03;;;;;;;;;13.75;13.75;;;;;26.05;53.77;100057.00;146610;588;46012;-70
2022/08/14 05:06:00;;;;;;;;;15.25;14.00;;;;;26.42;52.19;100064.13;146617;569;45020;-72
2022/08/14 05:08:52;;;;;;;;;17.00;16.75;;;;;26.80;52.77;100075.59;146600;563;46012;-72
2022/08/14 05:11:46;;;;;;;;;19.50;18.25;;;;;27.04;51.48;100077.63;146605;577;45021;-72
2022/08/14 05:14:38;;;;;;;;;19.25;17.00;;;;;27.22;51.15;100086.91;146601;612;45914;-70
2022/08/14 05:17:33;;;;;;;;;22.00;17.00;;;;;27.43;48.90;100077.47;146604;621;45020;-70
2022/08/14 05:20:25;;;;;;;;;17.50;16.00;;;;;27.58;48.76;100078.81;146601;604;46012;-70
2022/08/14 05:23:35;;;;;;;;;16.50;16.50;;;;;27.84;47.95;100083.41;146602;582;46010;-71
2022/08/14 05:26:39;;;;;;;;;;;;;;;;;;;;;
2022/08/14 05:29:53;;;;;;;;;;;;;;;;;;;;;
2022/08/14 05:32:57;;;;;;;;;20.50;16.00;;;;;28.73;46.08;100109.94;146602;655;45911;-72
2022/08/14 05:36:00;;;;;;;;;17.25;15.00;;;;;28.94;46.15;100108.34;146605;738;45021;-71
2022/08/14 05:38:56;;;;;;;;;15.75;15.75;;;;;29.18;45.62;100118.19;146602;596;45912;-70
2022/08/14 05:41:57;;;;;;;;;15.50;13.75;;;;;29.34;45.05;100126.53;146603;633;45021;-73
2022/08/14 05:45:02;;;;;;;;;19.00;17.00;;;;;29.36;44.76;100121.16;146600;581;46012;-72
2022/08/14 05:48:11;;;;;;;;;15.00;14.75;;;;;29.28;44.78;100123.22;146605;579;45020;-72
2022/08/14 05:51:03;;;;;;;;;15.00;14.00;;;;;29.15;45.53;100120.97;146602;630;45913;-74
2022/08/14 05:54:07;;;;;;;;;14.75;14.50;;;;;29.07;45.97;100120.38;146606;608;45020;-71
2022/08/14 05:57:03;;;;;;;;;17.50;17.25;;;;;29.09;45.50;100118.50;146599;625;46013;-71
2022/08/14 06:00:18;;;;;;;;;15.75;15.75;;;;;28.48;45.76;99995.22;146605;566;45020;-71
2022/08/14 06:03:20;;;;;;;;;17.75;14.25;;;;;29.37;45.97;100120.22;146601;571;46012;-71
2022/08/14 06:06:12;;;;;;;;;16.50;15.75;;;;;29.55;45.05;100132.91;146606;697;45021;-70
2022/08/14 06:09:17;;;;;;;;;16.50;15.50;;;;;29.64;45.08;100121.06;146601;594;46012;-70
2022/08/14 06:12:15;;;;;;;;;17.75;16.50;;;;;29.58;44.77;100129.25;146605;596;45021;-71
2022/08/14 06:15:23;;;;;;;;;15.00;14.00;;;;;29.46;44.82;100122.56;146598;721;47912;-71
2022/08/14 06:18:20;;;;;;;;;15.25;14.75;;;;;29.34;45.06;100123.00;146606;569;46015;-71
2022/08/14 06:21:16;;;;;;;;;16.00;15.00;;;;;29.29;45.29;100119.63;146603;584;45911;-72
2022/08/14 06:24:22;;;;;;;;;15.25;14.00;;;;;29.38;45.55;100120.19;146605;570;46010;-69
2022/08/14 06:27:23;;;;;;;;;14.25;14.25;;;;;29.55;45.85;100105.31;146602;675;45912;-69
2022/08/14 06:30:26;;;;;;;;;12.00;12.00;;;;;29.64;45.68;100105.88;146607;631;45020;-77
2022/08/14 06:33:34;;;;;;;;;15.75;13.75;;;;;29.67;45.55;100105.78;146600;589;45912;-77
2022/08/14 06:36:29;;;;;;;;;18.25;17.25;;;;;29.77;45.77;100094.75;146606;564;45020;-77
2022/08/14 06:39:34;;;;;;;;;;;;;;;;;;;;;
2022/08/14 06:42:28;;;;;;;;;12.50;11.75;;;;;30.42;43.76;100098.47;146603;606;45023;-78
2022/08/14 06:45:25;;;;;;;;;14.50;12.00;;;;;30.66;43.39;100102.81;146601;609;45913;-78
2022/08/14 06:48:28;;;;;;;;;15.00;14.75;;;;;30.79;43.47;100101.37;146606;605;45021;-79
2022/08/14 06:51:32;;;;;;;;;18.50;17.25;;;;;30.89;43.05;100096.50;146601;595;45912;-78
2022/08/14 06:54:30;;;;;;;;;14.50;14.50;;;;;30.90;42.71;100084.84;146605;684;46011;-77
2022/08/14 06:57:23;;;;;;;;;16.75;15.50;;;;;30.87;42.55;100090.34;146604;566;45915;-78
2022/08/14 07:00:20;;;;;;;;;19.00;17.25;;;;;30.78;43.21;100086.28;146605;665;46010;-78
2022/08/14 07:06:43;;;;;;;;;13.00;12.50;;;;;30.99;42.58;100088.94;146608;665;46010;-79
2022/08/14 07:09:47;;;;;;;;;14.50;13.50;;;;;31.18;42.38;100089.88;146607;565;45912;-78
2022/08/14 07:12:51;;;;;;;;;12.25;11.00;;;;;30.36;42.72;99918.56;146611;611;45021;-77
2022/08/14 07:15:59;;;;;;;;;;;;;;;;;;;;;
2022/08/14 07:19:01;;;;;;;;;16.50;14.00;;;;;31.40;41.79;100089.84;146612;727;45021;-78
2022/08/14 07:21:59;;;;;;;;;15.25;13.75;;;;;31.39;42.11;100093.44;146608;569;45912;-77
2022/08/14 07:25:03;;;;;;;;;21.25;18.50;;;;;31.46;42.14;100089.53;146613;602;45021;-79
2022/08/14 07:28:40;;;;;;;;;;;;;;;;;;;;;
2022/08/14 07:31:42;;;;;;;;;18.75;18.75;;;;;31.74;41.18;100083.78;146616;569;45022;-77
2022/08/14 07:34:58;;;;;;;;;13.50;13.50;;;;;31.83;40.64;100071.78;146607;619;46012;-78
2022/08/14 07:38:13;;;;;;;;;;;;;;;;;;;;;
2022/08/14 07:41:18;;;;;;;;;15.00;15.00;;;;;31.76;41.18;100067.66;146607;667;45911;-80
2022/08/14 07:44:13;;;;;;;;;13.75;12.50;;;;;31.83;41.05;100069.09;146613;569;45036;-78
2022/08/14 07:47:10;;;;;;;;;15.50;15.50;;;;;31.95;40.63;100059.62;146605;616;46015;-78
2022/08/14 07:50:26;;;;;;;;;15.50;15.00;;;;;32.10;40.10;100060.72;146611;615;46010;-78
2022/08/14 07:53:26;;;;;;;;;14.50;13.50;;;;;32.31;41.15;100056.12;146607;619;46012;-77
2022/08/14 07:56:22;;;;;;;;;11.75;11.00;;;;;32.55;40.48;100054.03;146613;575;46014;-78
2022/08/14 07:59:23;;;;;;;;;14.75;13.50;;;;;32.75;39.51;100056.59;146607;565;46012;-77
2022/08/14 08:02:26;;;;;;;;;19.00;16.75;;;;;32.95;39.12;100052.88;146614;564;45027;-78
2022/08/14 08:05:34;;;;;;;;;12.75;11.75;;;;;33.16;40.24;100067.03;146607;571;46012;-79
2022/08/14 08:08:37;;;;;;;;;15.75;15.25;;;;;33.32;38.72;100048.28;146631;581;45010;-78
2022/08/14 08:11:38;;;;;;;;;18.00;17.50;;;;;33.29;38.73;100052.00;146630;662;44913;-77
2022/08/14 08:14:41;;;;;;;;;15.25;15.00;;;;;33.24;38.44;100054.06;146632;578;45010;-78
2022/08/14 08:17:38;;;;;;;;;13.00;12.75;;;;;33.23;38.17;100046.06;146629;578;45013;-78
2022/08/14 08:20:33;;;;;;;;;15.50;14.25;;;;;33.32;38.52;100041.06;146631;647;45010;-78
2022/08/14 08:23:38;;;;;;;;;;;;;;;;;;;;;
2022/08/14 08:26:50;;;;;;;;;19.00;18.75;;;;;33.50;37.97;100052.69;146630;582;44021;-79
2022/08/14 08:29:55;;;;;;;;;14.25;12.75;;;;;33.36;39.06;100049.84;146627;571;45912;-77
2022/08/14 08:32:54;;;;;;;;;13.75;13.50;;;;;33.37;36.96;100050.72;146629;589;45919;-78
2022/08/14 08:36:10;;;;;;;;;14.25;14.25;;;;;33.38;37.88;100053.31;146621;580;47914;-78
2022/08/14 08:39:08;;;;;;;;;14.50;14.25;;;;;33.37;37.90;100048.03;146632;633;44021;-78
2022/08/14 08:42:03;;;;;;;;;16.75;15.50;;;;;33.41;37.77;100044.22;146627;601;45016;-78
2022/08/14 08:45:10;;;;;;;;;16.25;15.25;;;;;33.61;38.99;100044.03;146631;564;44915;-78
2022/08/14 08:48:06;;;;;;;;;16.25;16.25;;;;;33.84;37.81;100039.22;146631;564;45915;-81
2022/08/14 08:51:06;;;;;;;;;12.25;12.25;;;;;33.81;39.03;100037.56;146631;571;45010;-79
2022/08/14 08:54:30;;;;;;;;;7.00;7.00;;;;;32.64;40.00;99871.94;146628;619;45016;-77
2022/08/14 08:57:36;;;;;;;;;14.25;14.25;;;;;33.45;39.18;100029.66;146630;642;44020;-78
2022/08/14 09:00:34;;;;;;;;;15.50;14.75;;;;;33.44;38.76;100027.94;146623;583;45914;-80
2022/08/14 09:03:39;;;;;;;;;14.25;13.50;;;;;33.38;39.70;100026.44;146630;636;44020;-81
2022/08/14 09:07:06;;;;;;;;;13.00;12.75;;;;;33.00;40.49;100025.81;146616;632;46014;-82
2022/08/14 09:10:14;;;;;;;;;14.50;14.00;;;;;32.67;40.96;100022.06;146604;609;46010;-79
2022/08/14 09:13:11;;;;;;;;;15.25;14.50;;;;;32.36;40.94;100020.06;146601;569;46012;-82
2022/08/14 09:16:05;;;;;;;;;16.50;15.75;;;;;32.20;41.98;100032.50;146604;583;46014;-82
2022/08/14 09:19:01;;;;;;;;;15.25;14.25;;;;;31.81;41.64;100013.81;146601;572;45912;-82
2022/08/14 09:21:58;;;;;;;;;14.25;13.75;;;;;31.70;41.46;100015.19;146604;615;45032;-80
2022/08/14 09:24:53;;;;;;;;;12.75;12.75;;;;;31.69;42.45;100012.59;146601;660;46012;-81
2022/08/14 09:27:52;;;;;;;;;15.25;14.25;;;;;31.67;39.13;100019.84;146608;624;45020;-83
2022/08/14 09:31:05;;;;;;;;;;;;;;;;;;;;;
2022/08/14 09:34:24;;;;;;;;;10.00;9.75;;;;;32.20;39.97;99994.94;146606;579;45020;-78
2022/08/14 09:38:08;;;;;;;;;16.50;14.25;;;;;32.23;39.82;99919.69;146603;587;45910;-78
2022/08/14 09:41:41;;;;;;;;;17.25;16.50;;;;;32.92;39.68;99993.09;146604;608;45915;-73
2022/08/14 09:45:22;;;;;;;;;13.75;13.75;;;;;33.02;40.39;99983.63;146601;609;45912;-74
2022/08/14 09:48:23;;;;;;;;;18.00;17.00;;;;;33.20;39.88;99987.13;146605;596;45020;-74
2022/08/14 09:51:36;;;;;;;;;13.25;13.25;;;;;33.32;38.72;99981.97;146603;643;45914;-75
2022/08/14 09:54:51;;;;;;;;;12.25;12.00;;;;;33.43;38.73;99972.44;146606;622;45021;-74
2022/08/14 09:57:47;;;;;;;;;14.75;14.75;;;;;33.40;37.68;99973.50;146600;574;46014;-73
2022/08/14 10:00:53;;;;;;;;;14.75;14.25;;;;;33.48;36.91;99975.75;146605;585;46010;-73
2022/08/14 10:04:05;;;;;;;;;15.00;13.75;;;;;33.54;38.88;99976.28;146602;606;45863;-75
2022/08/14 10:07:09;;;;;;;;;16.25;15.75;;;;;33.39;39.35;99968.19;146603;569;46010;-75
2022/08/14 10:10:13;;;;;;;;;15.75;15.25;;;;;33.30;39.56;99962.37;146601;672;46012;-74
2022/08/14 10:13:25;;;;;;;;;15.25;15.25;;;;;33.22;39.05;99959.25;146604;569;46010;-72
2022/08/14 10:16:29;;;;;;;;;;;;;;;;;;;;;
2022/08/14 10:19:30;;;;;;;;;12.50;11.50;;;;;33.09;38.44;99953.69;146603;563;45022;-72
2022/08/14 10:22:33;;;;;;;;;15.00;15.00;;;;;33.17;39.46;99961.31;146601;608;46014;-75
2022/08/14 10:25:43;;;;;;;;;12.25;12.25;;;;;33.16;39.88;99978.37;146606;573;45020;-74
2022/08/14 10:28:57;;;;;;;;;15.75;14.50;;;;;32.13;39.23;99830.78;146600;570;46013;-76
2022/08/14 10:32:03;;;;;;;;;16.00;15.50;;;;;32.70;39.96;99953.94;146604;571;46010;-75
2022/08/14 10:35:14;;;;;;;;;17.25;17.00;;;;;32.63;40.85;99964.16;146601;633;45914;-76
2022/08/14 10:38:17;;;;;;;;;15.75;14.75;;;;;32.50;41.88;99968.41;146603;582;46010;-75
2022/08/14 10:41:21;;;;;;;;;15.00;14.75;;;;;32.44;42.17;99968.72;146600;593;46012;-78
2022/08/14 10:44:28;;;;;;;;;9.25;9.25;;;;;32.32;40.67;99972.00;146605;564;45021;-75
2022/08/14 10:47:42;;;;;;;;;14.25;14.25;;;;;32.01;42.03;99959.25;146602;573;45914;-75
2022/08/14 10:50:49;;;;;;;;;;;;;;;;;;;;;
2022/08/14 10:53:48;;;;;;;;;16.50;14.75;;;;;31.54;41.38;99959.72;146601;628;45913;-77
2022/08/14 10:56:51;;;;;;;;;10.25;10.25;;;;;30.24;43.12;99797.91;146606;569;45020;-77
2022/08/14 11:00:28;;;;;;;;;10.75;10.00;;;;;30.66;44.11;99949.41;146601;575;45914;-75
2022/08/14 11:03:36;;;;;;;;;;;;;;;;;;;;;
2022/08/14 11:06:41;;;;;;;;;12.00;12.00;;;;;29.91;45.92;99950.78;146601;573;45913;-74
2022/08/14 11:09:43;;;;;;;;;13.00;12.00;;;;;29.74;45.71;99956.78;146603;567;46020;-76
2022/08/14 11:12:56;;;;;;;;;12.50;12.50;;;;;29.64;46.16;99950.06;146601;666;45914;-75
2022/08/14 11:16:11;;;;;;;;;;;;;;;;;;;;;
2022/08/14 11:19:10;;;;;;;;;12.25;10.75;;;;;29.82;45.38;99943.13;146601;625;45912;-76
2022/08/14 11:22:07;;;;;;;;;12.00;12.00;;;;;29.99;43.91;99937.94;146604;608;45021;-74
2022/08/14 11:25:10;;;;;;;;;15.25;14.75;;;;;30.29;44.21;99925.13;146601;586;45914;-75
2022/08/14 11:28:08;;;;;;;;;13.75;13.25;;;;;30.59;42.22;99920.25;146608;569;45021;-74
2022/08/14 11:31:14;;;;;;;;;11.75;11.75;;;;;30.89;41.20;99919.84;146600;580;46014;-74
2022/08/14 11:34:16;;;;;;;;;16.25;14.50;;;;;31.33;41.89;99911.53;146603;624;46010;-74
2022/08/14 11:37:14;;;;;;;;;17.75;13.75;;;;;31.83;41.04;99912.75;146602;683;45914;-76
2022/08/14 11:40:28;;;;;;;;;13.50;12.25;;;;;32.13;38.55;99915.75;146606;593;45020;-76
2022/08/14 11:43:31;;;;;;;;;10.50;9.50;;;;;32.37;38.41;99911.81;146601;655;45914;-73
2022/08/14 11:46:28;;;;;;;;;12.25;12.00;;;;;32.46;36.67;99902.41;146603;646;46010;-74
2022/08/14 11:49:31;;;;;;;;;13.50;12.50;;;;;32.48;38.22;99905.91;146601;602;45914;-78
2022/08/14 11:52:39;;;;;;;;;12.00;12.00;;;;;32.43;38.32;99898.09;146601;654;46014;-73
2022/08/14 11:56:01;;;;;;;;;16.25;13.75;;;;;32.32;39.81;99891.53;146602;605;45914;-74
2022/08/14 11:59:08;;;;;;;;;11.00;10.00;;;;;31.54;39.82;99750.75;146605;616;45021;-75
2022/08/14 12:02:12;;;;;;;;;11.75;11.75;;;;;32.54;40.00;99897.53;146602;563;45913;-76
2022/08/14 12:05:19;;;;;;;;;;;;;;;;;;;;;
2022/08/14 12:08:25;;;;;;;;;14.50;13.50;;;;;32.37;40.35;99889.47;146628;603;45912;-74
2022/08/14 12:11:20;;;;;;;;;13.00;12.25;;;;;32.34;40.88;99884.28;146632;616;45010;-73
2022/08/14 12:14:21;;;;;;;;;12.00;11.25;;;;;32.35;41.57;99899.41;146628;588;44485;-75
2022/08/14 12:17:49;;;;;;;;;15.50;14.75;;;;;32.38;41.99;99873.28;146631;571;45998;-73
2022/08/14 12:21:26;;;;;;;;;14.75;13.75;;;;;31.56;42.55;99719.34;146630;589;44017;-74
2022/08/14 12:24:21;;;;;;;;;12.50;12.50;;;;;32.38;43.03;99861.69;146626;591;45010;-76
2022/08/14 12:27:29;;;;;;;;;14.00;14.00;;;;;32.39;43.63;99848.19;146627;570;46914;-74
2022/08/14 12:30:47;;;;;;;;;17.25;16.25;;;;;32.45;42.89;99841.66;146631;590;44021;-74
2022/08/14 12:33:48;;;;;;;;;13.75;12.75;;;;;32.49;41.87;99840.53;146629;620;45014;-74
2022/08/14 12:36:52;;;;;;;;;14.75;14.75;;;;;32.58;41.96;99842.72;146632;569;44021;-79
2022/08/14 12:39:50;;;;;;;;;14.25;14.25;;;;;32.65;42.47;99835.25;146625;617;46914;-76
2022/08/14 12:42:53;;;;;;;;;16.00;14.00;;;;;32.72;41.51;99830.41;146633;588;44020;-78
2022/08/14 12:45:57;;;;;;;;;16.50;15.25;;;;;32.71;41.23;99818.81;146631;569;44914;-73
2022/08/14 12:49:05;;;;;;;;;10.25;10.25;;;;;32.46;40.82;99823.75;146632;572;44020;-76
2022/08/14 12:52:08;;;;;;;;;15.25;14.50;;;;;32.12;41.83;99822.81;146631;573;44915;-77
2022/08/14 12:55:19;;;;;;;;;14.00;13.50;;;;;31.75;42.05;99809.47;146628;573;44919;-80
2022/08/14 12:58:18;;;;;;;;;15.00;15.00;;;;;31.45;42.40;99805.66;146630;597;44042;-76
2022/08/14 13:01:21;;;;;;;;;15.00;15.00;;;;;31.32;42.16;99801.81;146631;609;45010;-71
2022/08/14 13:04:23;;;;;;;;;17.50;17.00;;;;;31.25;42.36;99796.75;146626;604;45912;-73
2022/08/14 13:07:16;;;;;;;;;15.25;15.25;;;;;31.25;42.38;99801.25;146615;581;45020;-75
2022/08/14 13:10:25;;;;;;;;;16.50;14.75;;;;;30.36;42.24;99647.59;146602;566;45912;-75
2022/08/14 13:13:27;;;;;;;;;9.00;9.00;;;;;31.22;42.36;99791.53;146605;618;46010;-77
2022/08/14 13:16:44;;;;;;;;;15.00;15.00;;;;;31.18;42.62;99787.25;146602;603;45912;-77
2022/08/14 13:19:51;;;;;;;;;15.00;15.00;;;;;31.19;42.34;99802.41;146605;674;45022;-76
2022/08/14 13:23:03;;;;;;;;;12.75;12.75;;;;;31.37;41.92;99815.84;146602;579;45912;-70
2022/08/14 13:25:59;;;;;;;;;15.75;14.00;;;;;31.49;41.23;99817.94;146605;650;45020;-72
2022/08/14 13:28:57;;;;;;;;;13.75;13.75;;;;;31.50;40.99;99819.69;146602;564;45913;-74
2022/08/14 13:31:57;;;;;;;;;10.75;10.75;;;;;31.42;40.60;99825.41;146606;569;45020;-71
2022/08/14 13:34:53;;;;;;;;;14.25;12.25;;;;;31.33;40.57;99807.06;146601;566;45913;-80
2022/08/14 13:37:51;;;;;;;;;11.25;11.25;;;;;31.33;40.62;99768.72;146604;675;47014;-83
2022/08/14 13:40:46;;;;;;;;;10.00;9.00;;;;;31.41;40.92;99753.19;146602;701;45912;-80
2022/08/14 13:43:50;;;;;;;;;11.25;11.25;;;;;31.50;40.73;99752.72;146606;629;45029;-78
2022/08/14 13:46:50;;;;;;;;;9.75;9.50;;;;;31.37;41.45;99770.31;146599;564;46012;-77
2022/08/14 13:49:47;;;;;;;;;7.25;7.25;;;;;31.09;41.80;99875.19;146604;694;45021;-75
2022/08/14 13:52:55;;;;;;;;;16.00;15.00;;;;;30.38;42.48;99750.88;146602;602;45912;-79
2022/08/14 13:55:56;;;;;;;;;20.00;13.75;;;;;29.52;43.87;99723.47;146602;578;45916;-73
2022/08/14 13:59:06;;;;;;;;;16.75;11.00;;;;;28.85;46.04;99909.41;146602;603;45912;-78
2022/08/14 14:02:07;;;;;;;;;2.33;2.33;;;;;27.89;49.16;100101.94;146607;584;46010;-80
2022/08/14 14:05:08;;;;;;;;;2.67;2.33;;;;;26.38;50.84;100168.75;146602;579;45913;-82
2022/08/14 14:08:21;;;;;;;;;2.67;1.67;;;;;24.68;55.35;100199.28;146608;595;45020;-79
2022/08/14 14:11:28;;;;;;;;;4.00;4.00;;;;;23.39;60.10;100155.81;146604;613;45913;-83
2022/08/14 14:14:22;;;;;;;;;3.00;3.00;;;;;22.54;64.75;100128.31;146608;648;45021;-81
2022/08/14 14:17:23;;;;;;;;;6.33;4.00;;;;;22.02;64.32;100118.91;146604;569;45912;-79
2022/08/14 14:20:23;;;;;;;;;5.00;5.00;;;;;21.58;66.74;100106.78;146608;564;45021;-82
2022/08/14 14:23:22;;;;;;;;;5.67;5.00;;;;;21.48;66.60;100081.34;146604;598;45913;-81
2022/08/14 14:26:22;;;;;;;;;6.67;5.00;;;;;21.42;70.07;100078.72;146605;577;45021;-83
2022/08/14 14:29:29;;;;;;;;;5.00;5.00;;;;;21.28;70.80;100086.66;146599;648;46014;-74
2022/08/14 14:32:35;;;;;;;;;3.00;3.00;;;;;20.90;73.71;100089.34;146606;590;46010;-71
2022/08/14 14:35:29;;;;;;;;;4.67;4.00;;;;;20.45;78.88;100051.56;146604;582;45913;-79